sensor_id;sensor_type;location;lat;lon;timestamp;pressure;altitude;pressure_sealevel;temperature;humidity
11329;BME280;5719;42.714;23.732;2023-02-11T00:02:20;96059.28;;;-4.39;57.33
11329;BME280;5719;42.714;23.732;2023-02-11T00:04:47;96065.13;;;-4.44;57.01
11329;BME280;5719;42.714;23.732;2023-02-11T00:07:14;96057.50;;;-4.49;57.33
11329;BME280;5719;42.714;23.732;2023-02-11T00:09:41;96061.69;;;-4.50;57.71
11329;BME280;5719;42.714;23.732;2023-02-11T00:12:09;96059.13;;;-4.53;57.65
11329;BME280;5719;42.714;23.732;2023-02-11T00:14:36;96057.41;;;-4.57;57.20
11329;BME280;5719;42.714;23.732;2023-02-11T00:17:03;96043.75;;;-4.72;56.81
11329;BME280;5719;42.714;23.732;2023-02-11T00:19:30;96070.78;;;-4.64;57.51
11329;BME280;5719;42.714;23.732;2023-02-11T00:21:57;96065.69;;;-4.68;57.61
11329;BME280;5719;42.714;23.732;2023-02-11T00:24:24;96066.47;;;-4.74;57.90
11329;BME280;5719;42.714;23.732;2023-02-11T00:26:50;96067.25;;;-4.76;57.64
11329;BME280;5719;42.714;23.732;2023-02-11T00:29:19;96064.69;;;-4.79;57.89
11329;BME280;5719;42.714;23.732;2023-02-11T00:31:46;96064.63;;;-4.85;57.59
11329;BME280;5719;42.714;23.732;2023-02-11T00:34:12;96062.91;;;-4.89;56.96
11329;BME280;5719;42.714;23.732;2023-02-11T00:36:39;96052.69;;;-4.99;57.06
11329;BME280;5719;42.714;23.732;2023-02-11T00:39:07;96047.50;;;-5.11;57.51
11329;BME280;5719;42.714;23.732;2023-02-11T00:41:34;96073.63;;;-5.03;57.62
11329;BME280;5719;42.714;23.732;2023-02-11T00:44:01;96064.38;;;-5.05;57.07
11329;BME280;5719;42.714;23.732;2023-02-11T00:46:29;96067.66;;;-5.09;57.31
11329;BME280;5719;42.714;23.732;2023-02-11T00:48:56;96048.25;;;-5.18;56.84
11329;BME280;5719;42.714;23.732;2023-02-11T00:51:23;96024.47;;;-5.35;57.41
11329;BME280;5719;42.714;23.732;2023-02-11T00:53:50;96054.16;;;-5.17;57.02
11329;BME280;5719;42.714;23.732;2023-02-11T00:56:17;96056.59;;;-5.22;57.48
11329;BME280;5719;42.714;23.732;2023-02-11T00:58:44;96054.84;;;-5.26;57.62
11329;BME280;5719;42.714;23.732;2023-02-11T01:01:11;96052.25;;;-5.30;57.46
11329;BME280;5719;42.714;23.732;2023-02-11T01:03:40;96048.03;;;-5.31;57.96
11329;BME280;5719;42.714;23.732;2023-02-11T01:06:08;96056.41;;;-5.34;58.00
11329;BME280;5719;42.714;23.732;2023-02-11T01:08:35;96056.34;;;-5.38;57.54
11329;BME280;5719;42.714;23.732;2023-02-11T01:11:05;96056.31;;;-5.43;57.74
11329;BME280;5719;42.714;23.732;2023-02-11T01:13:34;96036.03;;;-5.49;57.48
11329;BME280;5719;42.714;23.732;2023-02-11T01:16:02;96051.19;;;-5.46;57.53
11329;BME280;5719;42.714;23.732;2023-02-11T01:18:29;96051.16;;;-5.49;57.55
11329;BME280;5719;42.714;23.732;2023-02-11T01:20:58;96044.41;;;-5.52;58.12
11329;BME280;5719;42.714;23.732;2023-02-11T01:23:25;96041.84;;;-5.53;57.87
11329;BME280;5719;42.714;23.732;2023-02-11T01:25:52;96051.06;;;-5.55;58.12
11329;BME280;5719;42.714;23.732;2023-02-11T01:28:22;96042.59;;;-5.60;57.90
11329;BME280;5719;42.714;23.732;2023-02-11T01:30:49;96031.50;;;-5.73;57.79
11329;BME280;5719;42.714;23.732;2023-02-11T01:33:17;95970.44;;;-6.15;57.46
11329;BME280;5719;42.714;23.732;2023-02-11T01:35:44;96044.16;;;-5.68;57.41
11329;BME280;5719;42.714;23.732;2023-02-11T01:38:16;96039.06;;;-5.71;57.27
11329;BME280;5719;42.714;23.732;2023-02-11T01:40:46;96016.13;;;-5.92;57.34
11329;BME280;5719;42.714;23.732;2023-02-11T01:43:13;96040.53;;;-5.85;57.57
11329;BME280;5719;42.714;23.732;2023-02-11T01:45:53;96028.78;;;-5.86;57.57
11329;BME280;5719;42.714;23.732;2023-02-11T01:48:24;96032.97;;;-5.88;58.27
11329;BME280;5719;42.714;23.732;2023-02-11T01:50:56;96044.69;;;-5.89;58.24
11329;BME280;5719;42.714;23.732;2023-02-11T01:53:26;96034.56;;;-5.93;57.65
11329;BME280;5719;42.714;23.732;2023-02-11T01:56:12;96026.91;;;-6.00;57.96
11329;BME280;5719;42.714;23.732;2023-02-11T01:59:01;96027.75;;;-5.99;58.46
11329;BME280;5719;42.714;23.732;2023-02-11T02:01:32;96018.53;;;-5.99;57.55
11329;BME280;5719;42.714;23.732;2023-02-11T02:04:02;96014.16;;;-6.10;58.08
11329;BME280;5719;42.714;23.732;2023-02-11T02:06:33;96028.50;;;-6.05;58.38
11329;BME280;5719;42.714;23.732;2023-02-11T02:09:05;96032.63;;;-6.08;57.84
11329;BME280;5719;42.714;23.732;2023-02-11T02:11:35;96011.44;;;-6.24;58.04
11329;BME280;5719;42.714;23.732;2023-02-11T02:14:02;96021.63;;;-6.16;57.75
11329;BME280;5719;42.714;23.732;2023-02-11T02:16:31;96000.47;;;-6.27;57.96
11329;BME280;5719;42.714;23.732;2023-02-11T02:22:09;96024.78;;;-6.26;58.01
11329;BME280;5719;42.714;23.732;2023-02-11T02:25:04;96013.81;;;-6.30;57.72
11329;BME280;5719;42.714;23.732;2023-02-11T02:27:40;96018.00;;;-6.32;58.19
11329;BME280;5719;42.714;23.732;2023-02-11T02:30:45;96017.94;;;-6.35;57.88
11329;BME280;5719;42.714;23.732;2023-02-11T02:33:32;96022.09;;;-6.37;57.62
11329;BME280;5719;42.714;23.732;2023-02-11T02:36:07;96020.34;;;-6.41;58.10
11329;BME280;5719;42.714;23.732;2023-02-11T02:38:39;96012.69;;;-6.49;57.99
11329;BME280;5719;42.714;23.732;2023-02-11T02:41:09;96007.50;;;-6.56;57.84
11329;BME280;5719;42.714;23.732;2023-02-11T02:43:39;96015.16;;;-6.50;58.34
11329;BME280;5719;42.714;23.732;2023-02-11T02:46:12;96023.59;;;-6.47;58.33
11329;BME280;5719;42.714;23.732;2023-02-11T02:48:41;96013.53;;;-6.47;57.87
11329;BME280;5719;42.714;23.732;2023-02-11T02:51:17;96019.34;;;-6.51;57.73
11329;BME280;5719;42.714;23.732;2023-02-11T02:53:57;96003.28;;;-6.57;57.83
11329;BME280;5719;42.714;23.732;2023-02-11T02:56:33;96026.03;;;-6.53;57.99
11329;BME280;5719;42.714;23.732;2023-02-11T02:59:24;96029.25;;;-6.60;57.62
11329;BME280;5719;42.714;23.732;2023-02-11T03:02:01;96028.31;;;-6.65;57.48
11329;BME280;5719;42.714;23.732;2023-02-11T03:04:37;96022.31;;;-6.70;57.40
11329;BME280;5719;42.714;23.732;2023-02-11T03:07:11;96027.31;;;-6.73;57.52
11329;BME280;5719;42.714;23.732;2023-02-11T03:09:44;96029.66;;;-6.80;57.74
11329;BME280;5719;42.714;23.732;2023-02-11T03:12:14;96031.28;;;-6.84;57.83
11329;BME280;5719;42.714;23.732;2023-02-11T03:14:43;96033.78;;;-6.85;58.00
11329;BME280;5719;42.714;23.732;2023-02-11T03:17:10;96026.94;;;-6.92;58.49
11329;BME280;5719;42.714;23.732;2023-02-11T03:19:41;96021.91;;;-6.92;58.47
11329;BME280;5719;42.714;23.732;2023-02-11T03:22:12;96020.16;;;-6.97;58.86
11329;BME280;5719;42.714;23.732;2023-02-11T03:24:44;96031.13;;;-6.93;58.63
11329;BME280;5719;42.714;23.732;2023-02-11T03:27:16;95999.81;;;-7.09;58.16
11329;BME280;5719;42.714;23.732;2023-02-11T03:29:49;96026.03;;;-6.95;58.09
11329;BME280;5719;42.714;23.732;2023-02-11T03:32:24;96031.81;;;-6.99;58.31
11329;BME280;5719;42.714;23.732;2023-02-11T03:34:55;96035.19;;;-6.98;58.27
11329;BME280;5719;42.714;23.732;2023-02-11T03:37:27;96042.56;;;-7.06;57.88
11329;BME280;5719;42.714;23.732;2023-02-11T03:39:57;96030.59;;;-7.19;57.61
11329;BME280;5719;42.714;23.732;2023-02-11T03:42:28;96037.38;;;-7.13;58.22
11329;BME280;5719;42.714;23.732;2023-02-11T03:44:59;96040.75;;;-7.14;57.84
11329;BME280;5719;42.714;23.732;2023-02-11T03:47:32;96039.91;;;-7.15;58.05
11329;BME280;5719;42.714;23.732;2023-02-11T03:50:04;96036.53;;;-7.15;58.00
11329;BME280;5719;42.714;23.732;2023-02-11T03:52:33;96026.31;;;-7.23;57.66
11329;BME280;5719;42.714;23.732;2023-02-11T03:55:02;96036.44;;;-7.20;57.59
11329;BME280;5719;42.714;23.732;2023-02-11T03:57:31;96035.53;;;-7.23;57.99
11329;BME280;5719;42.714;23.732;2023-02-11T03:59:59;96033.75;;;-7.27;57.83
11329;BME280;5719;42.714;23.732;2023-02-11T04:02:29;96013.31;;;-7.44;58.48
11329;BME280;5719;42.714;23.732;2023-02-11T04:04:57;96031.13;;;-7.32;58.00
11329;BME280;5719;42.714;23.732;2023-02-11T04:07:26;96033.75;;;-7.29;57.79
11329;BME280;5719;42.714;23.732;2023-02-11T04:09:53;96038.75;;;-7.29;57.83
11329;BME280;5719;42.714;23.732;2023-02-11T04:12:20;96022.63;;;-7.40;57.95
11329;BME280;5719;42.714;23.732;2023-02-11T04:14:46;96018.34;;;-7.44;58.19
11329;BME280;5719;42.714;23.732;2023-02-11T04:17:13;96033.53;;;-7.38;58.23
11329;BME280;5719;42.714;23.732;2023-02-11T04:19:40;96027.66;;;-7.40;58.75
11329;BME280;5719;42.714;23.732;2023-02-11T04:22:07;96035.13;;;-7.41;58.84
11329;BME280;5719;42.714;23.732;2023-02-11T04:24:35;96030.91;;;-7.44;57.98
11329;BME280;5719;42.714;23.732;2023-02-11T04:27:02;96033.38;;;-7.46;58.27
11329;BME280;5719;42.714;23.732;2023-02-11T04:29:29;96032.44;;;-7.49;58.27
11329;BME280;5719;42.714;23.732;2023-02-11T04:31:56;96023.25;;;-7.49;58.94
11329;BME280;5719;42.714;23.732;2023-02-11T04:34:23;96030.53;;;-7.97;59.73
11329;BME280;5719;42.714;23.732;2023-02-11T04:36:50;96024.09;;;-7.87;59.46
11329;BME280;5719;42.714;23.732;2023-02-11T04:39:17;96025.94;;;-7.80;58.87
11329;BME280;5719;42.714;23.732;2023-02-11T04:41:46;96004.75;;;-7.91;58.83
11329;BME280;5719;42.714;23.732;2023-02-11T04:44:13;96021.72;;;-7.79;59.11
11329;BME280;5719;42.714;23.732;2023-02-11T04:46:40;96027.59;;;-7.80;59.02
11329;BME280;5719;42.714;23.732;2023-02-11T04:49:07;96015.03;;;-7.80;58.92
11329;BME280;5719;42.714;23.732;2023-02-11T04:51:33;96007.41;;;-7.85;58.34
11329;BME280;5719;42.714;23.732;2023-02-11T04:54:02;96020.06;;;-7.80;58.56
11329;BME280;5719;42.714;23.732;2023-02-11T04:56:28;95999.56;;;-7.97;58.35
11329;BME280;5719;42.714;23.732;2023-02-11T04:58:57;96023.31;;;-7.84;58.43
11329;BME280;5719;42.714;23.732;2023-02-11T05:01:23;96023.16;;;-7.90;58.80
11329;BME280;5719;42.714;23.732;2023-02-11T05:03:50;96019.06;;;-7.87;58.94
11329;BME280;5719;42.714;23.732;2023-02-11T05:06:17;96019.09;;;-7.85;58.80
11329;BME280;5719;42.714;23.732;2023-02-11T05:08:44;96012.38;;;-7.86;58.86
11329;BME280;5719;42.714;23.732;2023-02-11T05:11:15;96016.56;;;-7.85;58.71
11329;BME280;5719;42.714;23.732;2023-02-11T05:13:42;95998.78;;;-7.96;58.33
11329;BME280;5719;42.714;23.732;2023-02-11T05:16:12;96007.28;;;-7.89;58.84
11329;BME280;5719;42.714;23.732;2023-02-11T05:18:41;96009.78;;;-7.89;58.40
11329;BME280;5719;42.714;23.732;2023-02-11T05:21:10;96007.16;;;-7.94;58.36
11329;BME280;5719;42.714;23.732;2023-02-11T05:23:38;95996.03;;;-8.07;58.36
11329;BME280;5719;42.714;23.732;2023-02-11T05:26:05;96012.09;;;-7.99;58.45
11329;BME280;5719;42.714;23.732;2023-02-11T05:28:32;96001.16;;;-8.01;58.31
11329;BME280;5719;42.714;23.732;2023-02-11T05:30:59;96015.34;;;-8.03;58.82
11329;BME280;5719;42.714;23.732;2023-02-11T05:33:28;96000.06;;;-8.12;58.88
11329;BME280;5719;42.714;23.732;2023-02-11T05:35:57;96007.75;;;-8.06;58.51
11329;BME280;5719;42.714;23.732;2023-02-11T05:38:25;96006.84;;;-8.08;58.37
11329;BME280;5719;42.714;23.732;2023-02-11T05:40:52;96001.81;;;-8.09;58.94
11329;BME280;5719;42.714;23.732;2023-02-11T05:43:19;96000.81;;;-8.16;59.20
11329;BME280;5719;42.714;23.732;2023-02-11T05:45:46;96010.22;;;-8.07;59.31
11329;BME280;5719;42.714;23.732;2023-02-11T05:48:13;96003.59;;;-8.05;59.36
11329;BME280;5719;42.714;23.732;2023-02-11T05:50:42;95993.44;;;-8.10;59.50
11329;BME280;5719;42.714;23.732;2023-02-11T05:53:09;96009.72;;;-7.93;59.97
11329;BME280;5719;42.714;23.732;2023-02-11T05:55:36;96009.94;;;-7.83;59.87
11329;BME280;5719;42.714;23.732;2023-02-11T05:58:03;95999.19;;;-7.78;59.33
11329;BME280;5719;42.714;23.732;2023-02-11T06:00:30;96016.34;;;-7.59;59.73
11329;BME280;5719;42.714;23.732;2023-02-11T06:02:57;96023.47;;;-7.39;59.80
11329;BME280;5719;42.714;23.732;2023-02-11T06:05:24;96011.13;;;-7.29;60.12
11329;BME280;5719;42.714;23.732;2023-02-11T06:07:52;96014.00;;;-7.11;59.35
11329;BME280;5719;42.714;23.732;2023-02-11T06:10:19;96009.50;;;-6.83;59.81
11329;BME280;5719;42.714;23.732;2023-02-11T06:12:47;96022.75;;;-6.47;58.67
11329;BME280;5719;42.714;23.732;2023-02-11T06:15:14;96022.47;;;-6.16;58.86
11329;BME280;5719;42.714;23.732;2023-02-11T06:17:41;96022.94;;;-5.82;58.08
11329;BME280;5719;42.714;23.732;2023-02-11T06:20:09;96019.19;;;-5.53;58.28
11329;BME280;5719;42.714;23.732;2023-02-11T06:22:36;96021.28;;;-5.23;57.70
11329;BME280;5719;42.714;23.732;2023-02-11T06:25:05;95956.41;;;-5.39;57.25
11329;BME280;5719;42.714;23.732;2023-02-11T06:27:32;96016.84;;;-4.73;56.68
11329;BME280;5719;42.714;23.732;2023-02-11T06:29:59;96021.38;;;-4.43;55.90
11329;BME280;5719;42.714;23.732;2023-02-11T06:32:26;96026.75;;;-4.12;55.51
11329;BME280;5719;42.714;23.732;2023-02-11T06:34:53;96024.53;;;-3.72;54.75
11329;BME280;5719;42.714;23.732;2023-02-11T06:37:20;96018.00;;;-3.38;53.63
11329;BME280;5719;42.714;23.732;2023-02-11T06:39:47;96017.34;;;-3.09;53.05
11329;BME280;5719;42.714;23.732;2023-02-11T06:42:15;96012.41;;;-2.83;53.25
11329;BME280;5719;42.714;23.732;2023-02-11T06:44:42;96018.47;;;-2.37;52.00
11329;BME280;5719;42.714;23.732;2023-02-11T06:47:09;96016.81;;;-1.92;51.10
11329;BME280;5719;42.714;23.732;2023-02-11T06:49:36;96014.28;;;-1.52;50.53
11329;BME280;5719;42.714;23.732;2023-02-11T06:52:04;96013.38;;;-1.16;49.38
11329;BME280;5719;42.714;23.732;2023-02-11T06:54:31;96011.56;;;-0.74;49.66
11329;BME280;5719;42.714;23.732;2023-02-11T06:56:58;96013.91;;;-0.33;48.35
11329;BME280;5719;42.714;23.732;2023-02-11T06:59:26;96012.00;;;0.04;47.58
11329;BME280;5719;42.714;23.732;2023-02-11T07:01:53;96009.06;;;0.52;47.45
11329;BME280;5719;42.714;23.732;2023-02-11T07:04:20;95993.47;;;0.85;46.05
11329;BME280;5719;42.714;23.732;2023-02-11T07:06:47;96004.09;;;1.21;45.88
11329;BME280;5719;42.714;23.732;2023-02-11T07:09:14;96004.56;;;1.53;45.00
11329;BME280;5719;42.714;23.732;2023-02-11T07:11:40;96004.09;;;1.88;44.72
11329;BME280;5719;42.714;23.732;2023-02-11T07:14:09;95941.31;;;1.79;44.14
11329;BME280;5719;42.714;23.732;2023-02-11T07:16:39;96003.16;;;2.50;43.43
11329;BME280;5719;42.714;23.732;2023-02-11T07:19:06;96003.28;;;2.91;43.26
11329;BME280;5719;42.714;23.732;2023-02-11T07:21:33;95989.13;;;3.20;42.68
11329;BME280;5719;42.714;23.732;2023-02-11T07:24:00;96000.19;;;3.62;41.69
11329;BME280;5719;42.714;23.732;2023-02-11T07:26:27;95999.50;;;3.95;41.02
11329;BME280;5719;42.714;23.732;2023-02-11T07:28:54;96002.25;;;4.23;40.96
11329;BME280;5719;42.714;23.732;2023-02-11T07:31:23;95992.06;;;4.57;40.70
11329;BME280;5719;42.714;23.732;2023-02-11T07:33:54;95991.44;;;4.82;40.23
11329;BME280;5719;42.714;23.732;2023-02-11T07:36:22;95990.56;;;5.16;40.08
11329;BME280;5719;42.714;23.732;2023-02-11T07:38:49;95986.41;;;5.42;39.60
11329;BME280;5719;42.714;23.732;2023-02-11T07:41:18;95978.78;;;5.69;39.26
11329;BME280;5719;42.714;23.732;2023-02-11T07:43:46;95989.91;;;5.99;39.24
11329;BME280;5719;42.714;23.732;2023-02-11T07:46:15;95977.84;;;6.30;38.74
11329;BME280;5719;42.714;23.732;2023-02-11T07:48:42;95975.84;;;6.64;38.45
11329;BME280;5719;42.714;23.732;2023-02-11T07:51:13;95972.56;;;6.85;38.57
11329;BME280;5719;42.714;23.732;2023-02-11T07:53:41;95950.44;;;7.06;37.15
11329;BME280;5719;42.714;23.732;2023-02-11T07:56:09;95963.50;;;7.25;37.02
11329;BME280;5719;42.714;23.732;2023-02-11T07:58:37;95973.88;;;7.47;37.13
11329;BME280;5719;42.714;23.732;2023-02-11T08:01:08;95961.16;;;7.65;37.08
11329;BME280;5719;42.714;23.732;2023-02-11T08:03:36;95972.56;;;8.05;36.59
11329;BME280;5719;42.714;23.732;2023-02-11T08:06:04;95967.56;;;8.45;37.07
11329;BME280;5719;42.714;23.732;2023-02-11T08:08:33;95968.66;;;8.81;36.56
11329;BME280;5719;42.714;23.732;2023-02-11T08:11:05;95964.13;;;8.86;35.65
11329;BME280;5719;42.714;23.732;2023-02-11T08:13:32;95964.25;;;9.04;35.47
11329;BME280;5719;42.714;23.732;2023-02-11T08:15:59;95966.06;;;9.22;34.87
11329;BME280;5719;42.714;23.732;2023-02-11T08:18:26;95956.56;;;8.82;35.02
11329;BME280;5719;42.714;23.732;2023-02-11T08:20:53;95953.53;;;8.72;36.59
11329;BME280;5719;42.714;23.732;2023-02-11T08:23:21;95958.84;;;8.26;36.46
11329;BME280;5719;42.714;23.732;2023-02-11T08:25:50;95959.00;;;8.21;36.45
11329;BME280;5719;42.714;23.732;2023-02-11T08:28:17;95954.34;;;8.95;35.61
11329;BME280;5719;42.714;23.732;2023-02-11T08:30:44;95948.59;;;8.88;35.81
11329;BME280;5719;42.714;23.732;2023-02-11T08:33:11;95954.38;;;9.33;34.98
11329;BME280;5719;42.714;23.732;2023-02-11T08:35:38;95954.97;;;9.59;33.85
11329;BME280;5719;42.714;23.732;2023-02-11T08:38:05;95947.59;;;9.89;34.03
11329;BME280;5719;42.714;23.732;2023-02-11T08:40:33;95955.09;;;9.56;34.87
11329;BME280;5719;42.714;23.732;2023-02-11T08:43:02;95942.53;;;9.48;35.52
11329;BME280;5719;42.714;23.732;2023-02-11T08:45:29;95941.53;;;10.27;34.14
11329;BME280;5719;42.714;23.732;2023-02-11T08:47:56;95951.91;;;10.78;33.08
11329;BME280;5719;42.714;23.732;2023-02-11T08:50:23;95947.50;;;10.98;33.04
11329;BME280;5719;42.714;23.732;2023-02-11T08:52:52;95951.09;;;11.45;32.19
11329;BME280;5719;42.714;23.732;2023-02-11T08:55:19;95955.25;;;11.98;31.51
11329;BME280;5719;42.714;23.732;2023-02-11T08:57:46;95927.22;;;12.36;30.59
11329;BME280;5719;42.714;23.732;2023-02-11T09:00:16;95937.03;;;12.76;30.27
11329;BME280;5719;42.714;23.732;2023-02-11T09:02:43;95939.94;;;12.86;30.04
11329;BME280;5719;42.714;23.732;2023-02-11T09:05:10;95934.84;;;12.84;29.94
11329;BME280;5719;42.714;23.732;2023-02-11T09:07:37;95937.47;;;12.68;30.14
11329;BME280;5719;42.714;23.732;2023-02-11T09:10:05;95948.06;;;11.37;31.29
11329;BME280;5719;42.714;23.732;2023-02-11T09:12:32;95952.56;;;11.84;30.88
11329;BME280;5719;42.714;23.732;2023-02-11T09:14:59;95946.16;;;11.58;30.12
11329;BME280;5719;42.714;23.732;2023-02-11T09:17:27;95941.13;;;10.88;30.71
11329;BME280;5719;42.714;23.732;2023-02-11T09:19:54;95945.81;;;11.31;31.02
11329;BME280;5719;42.714;23.732;2023-02-11T09:22:21;95934.66;;;9.51;32.94
11329;BME280;5719;42.714;23.732;2023-02-11T09:24:48;95941.41;;;6.70;37.27
11329;BME280;5719;42.714;23.732;2023-02-11T09:27:14;95945.63;;;6.46;39.29
11329;BME280;5719;42.714;23.732;2023-02-11T09:29:41;95938.22;;;9.10;35.92
11329;BME280;5719;42.714;23.732;2023-02-11T09:32:08;95928.59;;;9.52;34.07
11329;BME280;5719;42.714;23.732;2023-02-11T09:34:37;95926.44;;;9.99;33.30
11329;BME280;5719;42.714;23.732;2023-02-11T09:37:05;95927.03;;;10.76;32.13
11329;BME280;5719;42.714;23.732;2023-02-11T09:39:32;95917.78;;;7.78;35.08
11329;BME280;5719;42.714;23.732;2023-02-11T09:42:08;95923.03;;;5.17;41.17
11329;BME280;5719;42.714;23.732;2023-02-11T09:44:37;95913.84;;;7.23;39.29
11329;BME280;5719;42.714;23.732;2023-02-11T09:47:06;95896.72;;;7.45;39.46
11329;BME280;5719;42.714;23.732;2023-02-11T09:49:44;95880.63;;;8.27;37.02
11329;BME280;5719;42.714;23.732;2023-02-11T09:52:18;95898.75;;;7.14;39.49
11329;BME280;5719;42.714;23.732;2023-02-11T09:54:53;95898.88;;;6.86;39.15
11329;BME280;5719;42.714;23.732;2023-02-11T09:57:23;95894.38;;;7.84;38.87
11329;BME280;5719;42.714;23.732;2023-02-11T09:59:52;95885.47;;;7.48;37.87
11329;BME280;5719;42.714;23.732;2023-02-11T10:02:23;95882.72;;;6.58;39.63
11329;BME280;5719;42.714;23.732;2023-02-11T10:05:20;95881.34;;;7.44;38.31
11329;BME280;5719;42.714;23.732;2023-02-11T10:07:57;95870.59;;;8.21;36.94
11329;BME280;5719;42.714;23.732;2023-02-11T10:10:44;95862.88;;;8.63;35.89
11329;BME280;5719;42.714;23.732;2023-02-11T10:13:40;95841.13;;;8.06;37.45
11329;BME280;5719;42.714;23.732;2023-02-11T10:16:20;95841.81;;;8.11;36.85
11329;BME280;5719;42.714;23.732;2023-02-11T10:19:11;95849.06;;;8.44;37.58
11329;BME280;5719;42.714;23.732;2023-02-11T10:21:50;95845.88;;;6.82;38.73
11329;BME280;5719;42.714;23.732;2023-02-11T10:24:19;95850.81;;;6.14;40.46
11329;BME280;5719;42.714;23.732;2023-02-11T10:26:47;95832.28;;;7.92;37.62
11329;BME280;5719;42.714;23.732;2023-02-11T10:29:25;95816.25;;;9.44;34.71
11329;BME280;5719;42.714;23.732;2023-02-11T10:31:58;95819.97;;;10.10;34.38
11329;BME280;5719;42.714;23.732;2023-02-11T10:34:26;95804.91;;;10.87;32.17
11329;BME280;5719;42.714;23.732;2023-02-11T10:36:55;95783.09;;;8.78;35.31
11329;BME280;5719;42.714;23.732;2023-02-11T10:39:24;95794.00;;;9.04;36.28
11329;BME280;5719;42.714;23.732;2023-02-11T10:41:54;95792.50;;;8.61;35.31
11329;BME280;5719;42.714;23.732;2023-02-11T10:44:25;95770.63;;;10.16;34.78
11329;BME280;5719;42.714;23.732;2023-02-11T10:46:54;95766.00;;;8.57;34.37
11329;BME280;5719;42.714;23.732;2023-02-11T10:49:37;95778.59;;;7.82;36.38
11329;BME280;5719;42.714;23.732;2023-02-11T10:52:19;95766.00;;;7.97;37.28
11329;BME280;5719;42.714;23.732;2023-02-11T10:54:58;95762.84;;;9.08;35.82
11329;BME280;5719;42.714;23.732;2023-02-11T10:57:30;95749.06;;;9.81;33.97
11329;BME280;5719;42.714;23.732;2023-02-11T11:00:02;95751.44;;;9.85;33.11
11329;BME280;5719;42.714;23.732;2023-02-11T11:02:32;95742.03;;;10.02;33.89
11329;BME280;5719;42.714;23.732;2023-02-11T11:05:00;95744.47;;;7.35;36.68
11329;BME280;5719;42.714;23.732;2023-02-11T11:07:31;95743.81;;;8.73;34.59
11329;BME280;5719;42.714;23.732;2023-02-11T11:10:01;95739.84;;;9.04;34.74
11329;BME280;5719;42.714;23.732;2023-02-11T11:12:34;95737.88;;;8.71;33.49
11329;BME280;5719;42.714;23.732;2023-02-11T11:15:16;95726.53;;;9.13;34.05
11329;BME280;5719;42.714;23.732;2023-02-11T11:17:44;95733.06;;;7.63;36.04
11329;BME280;5719;42.714;23.732;2023-02-11T11:20:20;95728.66;;;9.94;32.34
11329;BME280;5719;42.714;23.732;2023-02-11T11:22:50;95716.34;;;9.81;32.59
11329;BME280;5719;42.714;23.732;2023-02-11T11:25:24;95724.59;;;9.54;31.58
11329;BME280;5719;42.714;23.732;2023-02-11T11:27:55;95714.94;;;7.66;32.79
11329;BME280;5719;42.714;23.732;2023-02-11T11:30:25;95725.25;;;6.56;37.17
11329;BME280;5719;42.714;23.732;2023-02-11T11:32:53;95715.38;;;7.55;36.10
11329;BME280;5719;42.714;23.732;2023-02-11T11:35:24;95714.94;;;7.66;35.61
11329;BME280;5719;42.714;23.732;2023-02-11T11:37:57;95711.75;;;8.98;33.18
11329;BME280;5719;42.714;23.732;2023-02-11T11:40:28;95704.44;;;7.70;36.31
11329;BME280;5719;42.714;23.732;2023-02-11T11:43:05;95712.44;;;8.25;35.04
11329;BME280;5719;42.714;23.732;2023-02-11T11:45:33;95699.16;;;9.63;32.10
11329;BME280;5719;42.714;23.732;2023-02-11T11:48:02;95694.06;;;8.71;34.37
11329;BME280;5719;42.714;23.732;2023-02-11T11:50:34;95674.22;;;8.73;33.59
11329;BME280;5719;42.714;23.732;2023-02-11T11:53:10;95684.66;;;8.52;34.53
11329;BME280;5719;42.714;23.732;2023-02-11T11:55:42;95685.47;;;8.33;33.69
11329;BME280;5719;42.714;23.732;2023-02-11T11:58:14;95682.69;;;10.00;32.80
11329;BME280;5719;42.714;23.732;2023-02-11T12:00:49;95685.66;;;9.93;31.10
11329;BME280;5719;42.714;23.732;2023-02-11T12:03:40;95660.88;;;10.23;30.17
11329;BME280;5719;42.714;23.732;2023-02-11T12:06:34;95659.84;;;9.75;32.73
11329;BME280;5719;42.714;23.732;2023-02-11T12:09:14;95651.00;;;9.97;32.03
11329;BME280;5719;42.714;23.732;2023-02-11T12:11:57;95656.03;;;11.12;30.02
11329;BME280;5719;42.714;23.732;2023-02-11T12:14:36;95666.66;;;9.94;30.96
11329;BME280;5719;42.714;23.732;2023-02-11T12:17:13;95638.56;;;9.00;32.58
11329;BME280;5719;42.714;23.732;2023-02-11T12:19:54;95650.31;;;9.93;30.61
11329;BME280;5719;42.714;23.732;2023-02-11T12:22:35;95647.50;;;8.74;32.92
11329;BME280;5719;42.714;23.732;2023-02-11T12:25:22;95642.78;;;8.84;32.36
11329;BME280;5719;42.714;23.732;2023-02-11T12:27:59;95637.47;;;9.40;30.84
11329;BME280;5719;42.714;23.732;2023-02-11T12:30:55;95605.63;;;10.57;30.76
11329;BME280;5719;42.714;23.732;2023-02-11T12:33:37;95621.19;;;9.04;29.58
11329;BME280;5719;42.714;23.732;2023-02-11T12:36:10;95620.25;;;8.88;30.77
11329;BME280;5719;42.714;23.732;2023-02-11T12:38:54;95619.13;;;10.46;28.94
11329;BME280;5719;42.714;23.732;2023-02-11T12:41:47;95617.59;;;9.94;30.27
11329;BME280;5719;42.714;23.732;2023-02-11T12:44:41;95609.56;;;8.59;31.14
11329;BME280;5719;42.714;23.732;2023-02-11T12:47:18;95614.97;;;8.91;31.30
11329;BME280;5719;42.714;23.732;2023-02-11T12:50:01;95611.00;;;8.65;31.33
11329;BME280;5719;42.714;23.732;2023-02-11T12:53:03;95614.09;;;9.26;32.37
11329;BME280;5719;42.714;23.732;2023-02-11T12:55:36;95605.78;;;9.72;31.24
11329;BME280;5719;42.714;23.732;2023-02-11T12:58:12;95604.44;;;10.31;29.15
11329;BME280;5719;42.714;23.732;2023-02-11T13:00:45;95605.72;;;8.68;31.24
11329;BME280;5719;42.714;23.732;2023-02-11T13:03:18;95600.59;;;9.38;31.92
11329;BME280;5719;42.714;23.732;2023-02-11T13:05:50;95584.81;;;9.27;31.72
11329;BME280;5719;42.714;23.732;2023-02-11T13:08:26;95592.44;;;8.58;31.55
11329;BME280;5719;42.714;23.732;2023-02-11T13:10:56;95588.22;;;10.12;30.18
11329;BME280;5719;42.714;23.732;2023-02-11T13:13:28;95596.31;;;9.89;30.61
11329;BME280;5719;42.714;23.732;2023-02-11T13:15:59;95589.41;;;11.16;29.53
11329;BME280;5719;42.714;23.732;2023-02-11T13:18:41;95587.25;;;9.64;29.85
11329;BME280;5719;42.714;23.732;2023-02-11T13:21:28;95573.41;;;9.48;30.55
11329;BME280;5719;42.714;23.732;2023-02-11T13:24:04;95579.97;;;10.85;29.43
11329;BME280;5719;42.714;23.732;2023-02-11T13:26:39;95574.16;;;11.41;28.73
11329;BME280;5719;42.714;23.732;2023-02-11T13:29:22;95565.94;;;11.93;26.78